Aérodrome :
LOGIN :

S'inscrire | Disclaimer

   EN    FR    IT 

 










Légende :    VFR   VFR Marginal   IFR   IFR Intensif   IFR Très Intensif
Visi : 
Plafond : 
>= 8 km
>= 3000ft
5 à 8 km
1000 à 3000 ft
1500m à 5 km
500 à 1000 ft
800 à 1500m
200 à 500 ft
< 800m
< 200 ft
Symboles :   Orages  Brouillard  Fortes neiges  Fortes précipitations  Vent > 20 kt
SIGMETs :   Divers  Orages  Givrage  Turbulence  Onde Orograph.  Cendres Volcan.







- Altitude de l'aérodrome : 287 ft
- Voir les cartes d'approche


LFRL - Lanveoc Poulmic

DERNIER METAR :
  • 250030Z AUTO 36004KT 4900 BR OVC003 14/13 Q1018

METARs EXPIRÉS :
  • 250000Z AUTO 35006KT 320V020 5000 BR OVC003 14/13 Q1018
  • 242330Z AUTO 36005KT 4800 BR BKN003 BKN140 OVC180 14/13 Q1018
  • 242300Z AUTO 02004KT 5000 BR OVC004 15/14 Q1018
  • 242230Z AUTO 35003KT 5000 BR BKN004 OVC008 15/14 Q1018
  • 242200Z AUTO 35006KT 5000 BR OVC003 15/14 Q1018

Prévision TAF périmée.
Pas de NOTAMs connus pour ce terrain.



MET'MAP, la Météo Aéronautique d'un coup d'oeil ! - Copyright ORBIFLY Décembre 2007 - Disclaimer

ORBIFLY MET'MAP TEAM :

Programmation & Développement : Alexandra Zaïnal
Conception & Développement : Baudouin d'Aumeries
Co-Programmation & Développement : Marc-Olivier Méhu
Soutien technique & logistique : Manuel Goepfert

Contact : metmap@orbifly.com




SOURCES & CREDITS :

   NOAA